createdAt,value
2023-02-27T00:00:59.801Z,1.30
2023-02-27T00:03:26.986Z,1.52
2023-02-27T00:05:56.200Z,1.77
2023-02-27T00:08:23.245Z,1.40
2023-02-27T00:10:50.617Z,1.70
2023-02-27T00:13:17.765Z,1.60
2023-02-27T00:15:48.365Z,1.38
2023-02-27T00:18:15.457Z,1.38
2023-02-27T00:20:42.803Z,1.55
2023-02-27T00:23:10.704Z,1.40
2023-02-27T00:25:37.765Z,1.70
2023-02-27T00:28:04.934Z,1.80
2023-02-27T00:30:32.054Z,1.85
2023-02-27T00:32:59.158Z,1.95
2023-02-27T00:35:26.251Z,1.80
2023-02-27T00:37:53.532Z,1.55
2023-02-27T00:40:20.702Z,1.60
2023-02-27T00:42:49.328Z,1.23
2023-02-27T00:45:16.380Z,1.60
2023-02-27T00:47:43.437Z,1.60
2023-02-27T00:50:10.816Z,1.55
2023-02-27T00:52:37.855Z,1.55
2023-02-27T00:55:04.956Z,1.40
2023-02-27T00:57:32.085Z,1.33
2023-02-27T00:59:59.281Z,1.33
2023-02-27T01:02:26.399Z,1.73
2023-02-27T01:04:53.489Z,1.60
2023-02-27T01:07:20.612Z,1.48
2023-02-27T01:09:47.632Z,2.10
2023-02-27T01:12:14.664Z,1.52
2023-02-27T01:14:43.736Z,1.58
2023-02-27T01:17:10.929Z,2.20
2023-02-27T01:19:37.988Z,2.00
2023-02-27T01:22:05.094Z,1.92
2023-02-27T01:24:32.195Z,1.45
2023-02-27T01:26:59.243Z,2.00
2023-02-27T01:29:26.276Z,1.85
2023-02-27T01:31:53.412Z,1.48
2023-02-27T01:34:20.553Z,1.60
2023-02-27T01:36:47.610Z,1.35
2023-02-27T01:39:14.761Z,1.20
2023-02-27T01:41:41.852Z,1.50
2023-02-27T01:44:12.469Z,1.40
2023-02-27T01:46:39.566Z,1.33
2023-02-27T01:49:13.995Z,1.30
2023-02-27T01:51:42.928Z,1.50
2023-02-27T01:54:10.413Z,1.77
2023-02-27T01:56:37.480Z,1.70
2023-02-27T01:59:05.400Z,1.30
2023-02-27T02:01:32.948Z,1.73
2023-02-27T02:04:20.742Z,1.65
2023-02-27T02:06:48.599Z,1.80
2023-02-27T02:09:16.651Z,2.03
2023-02-27T02:11:44.060Z,1.92
2023-02-27T02:14:11.087Z,2.30
2023-02-27T02:16:41.343Z,1.80
2023-02-27T02:19:08.425Z,1.45
2023-02-27T02:22:01.780Z,1.90
2023-02-27T02:24:43.789Z,3.35
2023-02-27T02:27:29.638Z,2.10
2023-02-27T02:30:15.519Z,2.10
2023-02-27T02:32:54.174Z,1.60
2023-02-27T02:35:27.440Z,2.08
2023-02-27T02:38:00.382Z,2.20
2023-02-27T02:40:39.377Z,2.88
2023-02-27T02:43:11.661Z,2.00
2023-02-27T02:45:38.649Z,1.63
2023-02-27T02:48:08.594Z,2.17
2023-02-27T02:50:41.365Z,2.17
2023-02-27T02:53:23.990Z,1.85
2023-02-27T02:55:53.707Z,1.88
2023-02-27T02:58:39.054Z,1.90
2023-02-27T03:01:11.761Z,1.77
2023-02-27T03:04:05.138Z,1.40
2023-02-27T03:06:33.298Z,1.60
2023-02-27T03:09:19.991Z,1.73
2023-02-27T03:11:48.540Z,1.67
2023-02-27T03:14:18.886Z,1.83
2023-02-27T03:16:47.085Z,1.85
2023-02-27T03:19:15.294Z,2.00
2023-02-27T03:21:49.687Z,1.75
2023-02-27T03:24:43.172Z,1.58
2023-02-27T03:27:10.290Z,1.85
2023-02-27T03:29:45.352Z,2.08
2023-02-27T03:32:17.345Z,1.92
2023-02-27T03:34:44.418Z,1.80
2023-02-27T03:37:17.491Z,2.20
2023-02-27T03:40:01.628Z,2.75
2023-02-27T03:42:37.405Z,1.90
2023-02-27T03:45:13.659Z,1.50
2023-02-27T03:47:40.736Z,1.58
2023-02-27T03:50:07.842Z,1.42
2023-02-27T03:52:34.848Z,1.58
2023-02-27T03:55:14.967Z,1.42
2023-02-27T03:57:42.050Z,1.67
2023-02-27T04:00:11.753Z,1.83
2023-02-27T04:02:38.983Z,2.00
2023-02-27T04:05:06.229Z,2.20
2023-02-27T04:07:33.247Z,2.00
2023-02-27T04:10:09.545Z,2.10
2023-02-27T04:12:44.312Z,2.30
2023-02-27T04:15:21.796Z,2.22
2023-02-27T04:17:56.304Z,1.92
2023-02-27T04:20:27.198Z,2.05
2023-02-27T04:23:04.500Z,2.03
2023-02-27T04:25:50.257Z,1.60
2023-02-27T04:28:39.252Z,1.80
2023-02-27T04:31:10.619Z,2.50
2023-02-27T04:33:45.701Z,1.75
2023-02-27T04:36:31.614Z,2.10
2023-02-27T04:39:01.784Z,1.80
2023-02-27T04:41:40.965Z,2.00
2023-02-27T04:44:08.279Z,1.80
2023-02-27T04:46:35.589Z,1.75
2023-02-27T04:49:22.793Z,1.98
2023-02-27T04:51:52.296Z,1.83
2023-02-27T04:54:22.027Z,2.00
2023-02-27T04:56:52.631Z,1.60
2023-02-27T04:59:21.138Z,1.70
2023-02-27T05:01:49.751Z,2.03
2023-02-27T05:04:17.085Z,1.73
2023-02-27T05:06:44.373Z,1.73
2023-02-27T05:09:11.406Z,1.80
2023-02-27T05:11:57.116Z,1.70
2023-02-27T05:14:29.919Z,2.10
2023-02-27T05:16:56.999Z,2.55
2023-02-27T05:19:24.033Z,2.28
2023-02-27T05:22:00.486Z,2.00
2023-02-27T05:24:35.122Z,2.25
2023-02-27T05:27:12.607Z,2.15
2023-02-27T05:29:39.682Z,2.20
2023-02-27T05:32:12.831Z,2.10
2023-02-27T05:34:43.168Z,2.40
2023-02-27T05:37:11.736Z,2.40
2023-02-27T05:39:39.022Z,2.42
2023-02-27T05:42:07.984Z,2.15
2023-02-27T05:44:35.533Z,1.98
2023-02-27T05:47:06.535Z,1.70
2023-02-27T05:49:34.650Z,2.20
2023-02-27T05:52:02.617Z,1.90
2023-02-27T05:54:34.872Z,1.85
2023-02-27T05:57:01.887Z,2.42
2023-02-27T05:59:28.999Z,2.25
2023-02-27T06:01:56.108Z,1.83
2023-02-27T06:04:23.232Z,1.88
2023-02-27T06:06:50.269Z,2.60
2023-02-27T06:09:17.341Z,2.05
2023-02-27T06:11:44.395Z,2.08
2023-02-27T06:14:11.455Z,2.38
2023-02-27T06:16:39.139Z,2.80
2023-02-27T06:19:06.438Z,2.50
2023-02-27T06:21:33.540Z,2.00
2023-02-27T06:24:00.642Z,2.50
2023-02-27T06:26:28.104Z,1.83
2023-02-27T06:28:55.430Z,2.10
2023-02-27T06:31:22.516Z,2.05
2023-02-27T06:33:49.550Z,2.10
2023-02-27T06:36:16.596Z,1.80
2023-02-27T06:38:43.711Z,2.38
2023-02-27T06:41:10.813Z,3.50
2023-02-27T06:43:37.900Z,3.53
2023-02-27T06:46:05.062Z,2.60
2023-02-27T06:48:32.116Z,2.30
2023-02-27T06:50:59.398Z,1.95
2023-02-27T06:53:26.489Z,1.65
2023-02-27T06:55:53.572Z,1.80
2023-02-27T06:58:20.671Z,2.38
2023-02-27T07:00:47.713Z,2.22
2023-02-27T07:03:14.773Z,2.70
2023-02-27T07:05:42.381Z,2.53
2023-02-27T07:08:09.744Z,2.17
2023-02-27T07:10:36.764Z,1.77
2023-02-27T07:13:03.902Z,1.95
2023-02-27T07:15:30.999Z,1.50
2023-02-27T07:17:58.051Z,2.10
2023-02-27T07:20:26.268Z,1.60
2023-02-27T07:22:53.319Z,1.92
2023-02-27T07:25:20.324Z,1.83
2023-02-27T07:27:49.611Z,1.88
2023-02-27T07:30:16.839Z,1.85
2023-02-27T07:32:43.915Z,1.88
2023-02-27T07:35:12.325Z,1.40
2023-02-27T07:37:39.389Z,1.80
2023-02-27T07:40:07.529Z,1.77
2023-02-27T07:42:35.109Z,1.70
2023-02-27T07:45:02.339Z,1.63
2023-02-27T07:47:30.356Z,1.55
2023-02-27T07:49:57.460Z,1.65
2023-02-27T07:52:24.803Z,1.90
2023-02-27T07:54:52.340Z,1.20
2023-02-27T07:57:19.416Z,1.52
2023-02-27T07:59:46.548Z,1.20
2023-02-27T08:02:13.632Z,1.10
2023-02-27T08:04:40.752Z,1.35
2023-02-27T08:07:08.175Z,1.17
2023-02-27T08:09:35.509Z,1.15
2023-02-27T08:12:03.029Z,1.60
2023-02-27T08:14:30.201Z,1.20
2023-02-27T08:16:57.260Z,1.10
2023-02-27T08:19:24.282Z,1.17
2023-02-27T08:21:51.378Z,1.33
2023-02-27T08:24:18.461Z,1.08
2023-02-27T08:26:45.553Z,1.40
2023-02-27T08:29:12.584Z,1.10
2023-02-27T08:31:39.712Z,1.20
2023-02-27T08:34:10.857Z,1.02
2023-02-27T08:36:38.167Z,1.30
2023-02-27T08:39:05.761Z,0.98
2023-02-27T08:41:32.918Z,1.10
2023-02-27T08:43:59.997Z,0.90
2023-02-27T08:46:27.362Z,1.77
2023-02-27T08:48:54.765Z,1.17
2023-02-27T08:51:21.963Z,1.50
2023-02-27T08:53:49.018Z,1.40
2023-02-27T08:56:16.104Z,1.25
2023-02-27T08:58:43.183Z,1.17
2023-02-27T09:01:10.302Z,1.00
2023-02-27T09:03:37.361Z,1.08
2023-02-27T09:06:05.208Z,1.55
2023-02-27T09:08:32.234Z,1.10
2023-02-27T09:10:59.273Z,0.70
2023-02-27T09:13:26.807Z,1.38
2023-02-27T09:15:54.332Z,1.45
2023-02-27T09:18:21.409Z,1.13
2023-02-27T09:20:51.006Z,1.40
2023-02-27T09:23:18.327Z,1.52
2023-02-27T09:25:45.536Z,1.63
2023-02-27T09:28:12.627Z,1.40
2023-02-27T09:30:39.698Z,1.10
2023-02-27T09:33:06.746Z,1.20
2023-02-27T09:35:33.927Z,0.90
2023-02-27T09:38:01.048Z,1.27
2023-02-27T09:40:29.146Z,1.05
2023-02-27T09:42:58.215Z,1.02
2023-02-27T09:45:26.393Z,1.30
2023-02-27T09:47:54.925Z,1.42
2023-02-27T09:50:37.683Z,1.30
2023-02-27T09:53:10.743Z,1.20
2023-02-27T09:55:38.798Z,1.20
2023-02-27T09:58:07.708Z,1.40
2023-02-27T10:00:38.170Z,1.65
2023-02-27T10:03:12.514Z,1.88
2023-02-27T10:05:58.544Z,1.17
2023-02-27T10:08:30.208Z,1.65
2023-02-27T10:11:01.049Z,1.23
2023-02-27T10:13:34.310Z,1.00
2023-02-27T10:16:01.469Z,1.10
2023-02-27T10:18:32.860Z,1.00
2023-02-27T10:21:03.627Z,1.10
2023-02-27T10:23:38.718Z,0.90
2023-02-27T10:26:05.824Z,1.05
2023-02-27T10:28:33.186Z,1.17
2023-02-27T10:31:00.864Z,1.42
2023-02-27T10:33:29.646Z,1.08
2023-02-27T10:35:57.822Z,0.80
2023-02-27T10:38:33.122Z,0.80
2023-02-27T10:41:00.528Z,0.85
2023-02-27T10:43:27.593Z,1.13
2023-02-27T10:45:54.722Z,0.80
2023-02-27T10:48:23.003Z,0.80
2023-02-27T10:50:52.199Z,1.35
2023-02-27T10:53:19.352Z,1.13
2023-02-27T10:55:48.474Z,0.55
2023-02-27T10:58:21.581Z,0.80
2023-02-27T11:00:59.209Z,0.65
2023-02-27T11:03:28.788Z,0.82
2023-02-27T11:05:59.630Z,1.13
2023-02-27T11:08:28.003Z,0.70
2023-02-27T11:10:55.300Z,0.70
2023-02-27T11:13:22.719Z,1.13
2023-02-27T11:16:03.078Z,0.65
2023-02-27T11:18:30.369Z,0.70
2023-02-27T11:21:15.923Z,0.80
2023-02-27T11:23:50.097Z,0.65
2023-02-27T11:26:18.458Z,0.70
2023-02-27T11:28:45.479Z,0.88
2023-02-27T11:31:21.559Z,0.70
2023-02-27T11:33:50.104Z,0.80
2023-02-27T11:36:17.988Z,1.10
2023-02-27T11:38:51.030Z,0.90
2023-02-27T11:41:18.687Z,1.10
2023-02-27T11:43:51.830Z,0.98
2023-02-27T11:46:46.634Z,0.88
2023-02-27T11:49:15.692Z,1.00
2023-02-27T11:51:47.526Z,0.90
2023-02-27T11:54:19.372Z,1.00
2023-02-27T11:56:51.234Z,0.90
2023-02-27T11:59:27.509Z,1.30
2023-02-27T12:01:54.615Z,0.80
2023-02-27T12:04:21.628Z,1.08
2023-02-27T12:06:51.762Z,1.13
2023-02-27T12:09:45.389Z,0.98
2023-02-27T12:12:15.238Z,0.80
2023-02-27T12:14:42.330Z,0.80
2023-02-27T12:17:10.833Z,1.20
2023-02-27T12:19:42.771Z,0.47
2023-02-27T12:22:21.437Z,0.70
2023-02-27T12:24:49.952Z,0.75
2023-02-27T12:27:21.665Z,0.80
2023-02-27T12:29:50.178Z,0.60
2023-02-27T12:32:34.581Z,0.88
2023-02-27T12:35:21.284Z,0.77
2023-02-27T12:37:48.360Z,0.90
2023-02-27T12:40:18.749Z,0.65
2023-02-27T12:42:49.029Z,0.68
2023-02-27T12:45:37.457Z,0.63
2023-02-27T12:48:14.352Z,0.63
2023-02-27T12:50:44.098Z,1.10
2023-02-27T12:53:16.888Z,0.60
2023-02-27T12:55:46.005Z,1.00
2023-02-27T12:58:24.993Z,0.45
2023-02-27T13:01:02.138Z,0.50
2023-02-27T13:03:31.213Z,0.60
2023-02-27T13:06:02.113Z,0.60
2023-02-27T13:08:48.054Z,0.73
2023-02-27T13:11:17.260Z,0.80
2023-02-27T13:13:56.418Z,0.55
2023-02-27T13:16:26.737Z,0.80
2023-02-27T13:18:55.176Z,0.60
2023-02-27T13:21:42.538Z,0.75
2023-02-27T13:24:15.924Z,0.77
2023-02-27T13:26:44.181Z,0.68
2023-02-27T13:29:12.993Z,0.70
2023-02-27T13:31:47.078Z,0.60
2023-02-27T13:34:18.284Z,0.65
2023-02-27T13:36:52.178Z,0.60
2023-02-27T13:39:38.870Z,0.60
2023-02-27T13:42:09.745Z,0.60
2023-02-27T13:44:36.808Z,1.08
2023-02-27T13:47:23.816Z,0.93
2023-02-27T13:49:50.917Z,0.90
2023-02-27T13:52:18.169Z,0.70
2023-02-27T13:54:45.824Z,0.75
2023-02-27T13:57:19.878Z,0.82
2023-02-27T14:00:09.012Z,0.70
2023-02-27T14:02:37.507Z,1.17
2023-02-27T14:05:06.748Z,0.90
2023-02-27T14:08:10.374Z,0.60
2023-02-27T14:10:37.438Z,0.80
2023-02-27T14:13:05.205Z,0.80
2023-02-27T14:15:32.549Z,0.80
2023-02-27T14:18:12.695Z,0.93
2023-02-27T14:20:42.949Z,0.90
2023-02-27T14:23:16.167Z,0.73
2023-02-27T14:25:46.056Z,0.55
2023-02-27T14:28:17.343Z,0.90
2023-02-27T14:30:52.247Z,0.88
2023-02-27T14:33:33.327Z,0.63
2023-02-27T14:36:07.372Z,0.70
2023-02-27T14:38:34.448Z,0.60
2023-02-27T14:41:01.493Z,2.10
2023-02-27T14:43:28.488Z,0.70
2023-02-27T14:45:55.692Z,1.30
2023-02-27T14:48:27.697Z,0.90
2023-02-27T14:50:57.801Z,1.00
2023-02-27T14:53:25.704Z,1.23
2023-02-27T14:55:56.797Z,0.88
2023-02-27T14:58:24.104Z,1.00
2023-02-27T15:01:02.470Z,1.00
2023-02-27T15:03:29.482Z,0.85
2023-02-27T15:05:58.507Z,0.80
2023-02-27T15:08:38.012Z,0.75
2023-02-27T15:11:05.199Z,1.42
2023-02-27T15:13:33.220Z,0.85
2023-02-27T15:16:20.022Z,0.82
2023-02-27T15:18:51.059Z,1.30
2023-02-27T15:21:18.838Z,0.90
2023-02-27T15:23:50.893Z,1.02
2023-02-27T15:26:18.123Z,0.80
2023-02-27T15:28:45.229Z,1.23
2023-02-27T15:31:13.275Z,1.40
2023-02-27T15:33:40.680Z,1.13
2023-02-27T15:36:07.833Z,1.10
2023-02-27T15:38:35.976Z,1.20
2023-02-27T15:41:03.316Z,1.30
2023-02-27T15:43:30.507Z,1.35
2023-02-27T15:45:58.177Z,1.25
2023-02-27T15:48:25.387Z,1.23
2023-02-27T15:50:57.952Z,1.05
2023-02-27T15:53:26.207Z,1.00
2023-02-27T15:55:54.274Z,1.30
2023-02-27T15:58:21.326Z,1.30
2023-02-27T16:00:48.491Z,1.20
2023-02-27T16:03:17.553Z,1.80
2023-02-27T16:05:44.631Z,1.20
2023-02-27T16:08:18.007Z,1.05
2023-02-27T16:10:45.452Z,0.82
2023-02-27T16:13:31.437Z,1.50
2023-02-27T16:15:59.754Z,1.10
2023-02-27T16:18:31.978Z,1.10
2023-02-27T16:20:59.655Z,1.00
2023-02-27T16:23:27.698Z,1.10
2023-02-27T16:26:00.922Z,0.90
2023-02-27T16:28:34.959Z,0.80
2023-02-27T16:31:02.497Z,2.00
2023-02-27T16:33:31.651Z,2.42
2023-02-27T16:36:06.692Z,1.60
2023-02-27T16:38:33.698Z,1.30
2023-02-27T16:41:01.029Z,1.40
2023-02-27T16:43:28.241Z,1.50
2023-02-27T16:45:56.475Z,0.98
2023-02-27T16:48:23.550Z,1.40
2023-02-27T16:50:50.766Z,2.25
2023-02-27T16:53:17.986Z,2.17
2023-02-27T16:55:45.025Z,2.03
2023-02-27T16:58:18.900Z,1.63
2023-02-27T17:00:46.033Z,1.60
2023-02-27T17:03:14.236Z,1.30
2023-02-27T17:05:41.543Z,1.90
2023-02-27T17:08:09.704Z,1.00
2023-02-27T17:10:36.729Z,2.08
2023-02-27T17:13:03.770Z,1.10
2023-02-27T17:15:30.813Z,1.20
2023-02-27T17:17:57.862Z,1.08
2023-02-27T17:20:27.882Z,1.48
2023-02-27T17:22:55.092Z,1.15
2023-02-27T17:25:22.278Z,1.35
2023-02-27T17:27:50.162Z,1.50
2023-02-27T17:30:17.317Z,1.67
2023-02-27T17:32:44.360Z,1.30
2023-02-27T17:35:11.519Z,1.50
2023-02-27T17:37:38.621Z,1.60
2023-02-27T17:40:08.024Z,1.58
2023-02-27T17:42:39.126Z,1.40
2023-02-27T17:45:06.590Z,1.50
2023-02-27T17:47:33.970Z,1.20
2023-02-27T17:50:01.087Z,1.50
2023-02-27T17:52:28.239Z,2.00
2023-02-27T17:54:55.649Z,1.77
2023-02-27T17:57:22.682Z,1.70
2023-02-27T17:59:49.774Z,1.83
2023-02-27T18:02:16.904Z,2.10
2023-02-27T18:04:44.053Z,1.33
2023-02-27T18:07:11.143Z,1.90
2023-02-27T18:09:38.229Z,1.55
2023-02-27T18:12:05.349Z,1.92
2023-02-27T18:14:32.488Z,1.90
2023-02-27T18:16:59.924Z,1.58
2023-02-27T18:19:26.954Z,1.70
2023-02-27T18:21:54.146Z,1.90
2023-02-27T18:24:21.442Z,1.50
2023-02-27T18:26:49.165Z,1.38
2023-02-27T18:29:17.740Z,1.55
2023-02-27T18:31:45.354Z,1.88
2023-02-27T18:34:13.047Z,1.55
2023-02-27T18:36:40.125Z,2.00
2023-02-27T18:39:07.297Z,1.60
2023-02-27T18:41:34.474Z,2.00
2023-02-27T18:44:01.497Z,1.80
2023-02-27T18:46:29.174Z,1.67
2023-02-27T18:48:56.560Z,2.00
2023-02-27T18:51:23.708Z,2.13
2023-02-27T18:53:50.869Z,2.00
2023-02-27T18:56:19.079Z,1.83
2023-02-27T18:58:46.246Z,2.33
2023-02-27T19:01:23.961Z,3.00
2023-02-27T19:03:51.288Z,2.30
2023-02-27T19:06:18.374Z,3.22
2023-02-27T19:08:45.880Z,2.72
2023-02-27T19:11:21.061Z,3.60
2023-02-27T19:13:48.103Z,2.40
2023-02-27T19:16:15.164Z,2.65
2023-02-27T19:18:42.379Z,2.45
2023-02-27T19:21:09.595Z,2.00
2023-02-27T19:23:36.808Z,2.20
2023-02-27T19:26:03.910Z,2.40
2023-02-27T19:28:30.961Z,2.50
2023-02-27T19:30:58.247Z,2.85
2023-02-27T19:33:25.580Z,2.88
2023-02-27T19:35:52.647Z,2.50
2023-02-27T19:38:19.786Z,2.08
2023-02-27T19:40:46.811Z,1.95
2023-02-27T19:43:15.334Z,1.67
2023-02-27T19:45:42.695Z,2.03
2023-02-27T19:48:11.224Z,2.47
2023-02-27T19:50:40.013Z,2.90
2023-02-27T19:53:07.086Z,2.70
2023-02-27T19:55:34.156Z,2.67
2023-02-27T19:58:01.461Z,2.97
2023-02-27T20:00:29.436Z,2.90
2023-02-27T20:02:56.826Z,2.20
2023-02-27T20:05:24.609Z,3.03
2023-02-27T20:07:52.872Z,2.60
2023-02-27T20:10:20.104Z,1.80
2023-02-27T20:12:47.154Z,1.90
2023-02-27T20:15:14.254Z,1.85
2023-02-27T20:17:41.994Z,2.30
2023-02-27T20:20:09.457Z,1.77
2023-02-27T20:22:38.059Z,2.50
2023-02-27T20:25:05.211Z,2.00
2023-02-27T20:27:32.296Z,1.88
2023-02-27T20:29:59.382Z,2.42
2023-02-27T20:32:26.633Z,2.03
2023-02-27T20:34:55.845Z,2.60
2023-02-27T20:37:23.021Z,2.88
2023-02-27T20:39:50.265Z,3.10
2023-02-27T20:42:17.350Z,2.35
2023-02-27T20:44:44.406Z,2.10
2023-02-27T20:47:11.421Z,1.65
2023-02-27T20:49:39.071Z,1.98
2023-02-27T20:52:06.264Z,2.53
2023-02-27T20:54:33.424Z,2.90
2023-02-27T20:57:00.503Z,2.95
2023-02-27T20:59:27.632Z,3.22
2023-02-27T21:01:54.869Z,3.70
2023-02-27T21:04:23.298Z,3.20
2023-02-27T21:06:50.806Z,3.22
2023-02-27T21:09:18.811Z,2.55
2023-02-27T21:11:45.927Z,2.63
2023-02-27T21:14:12.995Z,2.40
2023-02-27T21:16:40.694Z,2.30
2023-02-27T21:19:08.119Z,1.80
2023-02-27T21:21:35.320Z,1.70
2023-02-27T21:24:02.441Z,1.80
2023-02-27T21:26:30.581Z,2.40
2023-02-27T21:28:58.697Z,2.25
2023-02-27T21:31:26.734Z,2.20
2023-02-27T21:33:54.121Z,2.28
2023-02-27T21:36:31.472Z,1.90
2023-02-27T21:38:59.213Z,1.90
2023-02-27T21:41:26.912Z,2.25
2023-02-27T21:43:57.766Z,1.90
2023-02-27T21:46:24.882Z,2.05
2023-02-27T21:48:51.972Z,2.28
2023-02-27T21:51:29.765Z,1.90
2023-02-27T21:54:05.613Z,2.05
2023-02-27T21:56:32.672Z,2.05
2023-02-27T21:59:01.158Z,2.40
2023-02-27T22:01:28.907Z,2.13
2023-02-27T22:03:56.277Z,2.58
2023-02-27T22:06:23.826Z,2.45
2023-02-27T22:08:57.243Z,2.90
2023-02-27T22:11:24.610Z,2.83
2023-02-27T22:13:51.658Z,2.60
2023-02-27T22:16:18.753Z,2.83
2023-02-27T22:18:46.013Z,2.70
2023-02-27T22:21:16.120Z,2.50
2023-02-27T22:23:43.412Z,2.35
2023-02-27T22:26:12.018Z,2.72
2023-02-27T22:28:41.179Z,2.65
2023-02-27T22:31:08.271Z,2.47
2023-02-27T22:33:36.321Z,2.85
2023-02-27T22:36:07.421Z,2.42
2023-02-27T22:38:34.751Z,2.47
2023-02-27T22:41:08.780Z,2.50
2023-02-27T22:43:38.097Z,2.70
2023-02-27T22:46:05.251Z,2.88
2023-02-27T22:48:32.472Z,2.85
2023-02-27T22:51:00.144Z,3.05
2023-02-27T22:53:27.278Z,3.25
2023-02-27T22:55:55.005Z,3.17
2023-02-27T22:58:22.293Z,3.58
2023-02-27T23:00:49.313Z,2.80
2023-02-27T23:03:17.454Z,3.25
2023-02-27T23:05:45.288Z,2.92
2023-02-27T23:08:12.499Z,3.20
2023-02-27T23:10:39.807Z,3.03
2023-02-27T23:13:06.916Z,3.15
2023-02-27T23:15:34.789Z,3.45
2023-02-27T23:18:01.799Z,3.38
2023-02-27T23:20:28.860Z,3.22
2023-02-27T23:22:55.910Z,3.78
2023-02-27T23:25:23.041Z,3.47
2023-02-27T23:27:50.074Z,3.80
2023-02-27T23:30:17.573Z,3.50
2023-02-27T23:32:45.040Z,4.15
2023-02-27T23:35:12.208Z,4.32
2023-02-27T23:37:39.437Z,3.80
2023-02-27T23:40:06.935Z,4.20
2023-02-27T23:42:34.067Z,4.28
2023-02-27T23:45:19.720Z,4.45
2023-02-27T23:47:51.792Z,4.15
2023-02-27T23:50:20.614Z,4.40
2023-02-27T23:52:51.262Z,4.38
2023-02-27T23:55:18.661Z,4.43
2023-02-27T23:57:45.734Z,4.45
